Time;durP1;ratioP1;P1;durP2;ratioP2;P2;SDS_P1;SDS_P2;PMS_P1;PMS_P2;Temp;Humidity;BMP_temperature;BMP_pressure;BME280_temperature;BME280_humidity;BME280_pressure;Samples;Min_cycle;Max_cycle;Signal;HPM_P1;HPM_P2
2021/07/17 00:01:48;;;;;;;22.30;14.53;;;18.70;99.90;;;;;;4828702;29;20241;-77
2021/07/17 00:04:13;;;;;;;20.50;13.90;;;18.70;99.90;;;;;;4851466;29;20226;-77
2021/07/17 00:06:39;;;;;;;22.03;13.90;;;18.70;99.90;;;;;;4829428;29;20456;-77
2021/07/17 00:09:08;;;;;;;21.20;13.57;;;18.70;99.90;;;;;;4826944;29;20712;-77
2021/07/17 00:11:34;;;;;;;22.40;13.17;;;18.60;99.90;;;;;;4837439;29;20218;-77
2021/07/17 00:14:00;;;;;;;19.80;13.77;;;18.60;99.90;;;;;;4834212;29;20490;-77
2021/07/17 00:16:26;;;;;;;22.07;14.97;;;18.60;99.90;;;;;;4843909;29;20472;-77
2021/07/17 00:18:54;;;;;;;21.13;15.17;;;18.60;99.90;;;;;;4839153;29;20230;-77
2021/07/17 00:21:20;;;;;;;24.43;15.00;;;18.50;99.90;;;;;;4856064;29;20463;-77
2021/07/17 00:23:46;;;;;;;20.33;13.73;;;18.50;99.90;;;;;;4828706;29;20480;-77
2021/07/17 00:26:12;;;;;;;22.77;13.90;;;18.50;99.90;;;;;;4845888;29;20472;-77
2021/07/17 00:28:41;;;;;;;19.20;13.57;;;18.50;99.90;;;;;;4832165;29;20305;-77
2021/07/17 00:31:06;;;;;;;19.00;14.07;;;18.50;99.90;;;;;;4845861;29;20620;-77
2021/07/17 00:33:32;;;;;;;19.83;13.67;;;18.50;99.90;;;;;;4811997;29;20546;-77
2021/07/17 00:35:58;;;;;;;20.20;15.23;;;18.50;99.90;;;;;;4858268;29;20227;-77
2021/07/17 00:38:23;;;;;;;24.50;13.53;;;18.40;99.90;;;;;;4856591;29;20241;-77
2021/07/17 00:40:49;;;;;;;19.23;13.70;;;18.40;99.90;;;;;;4839195;29;20278;-78
2021/07/17 00:43:15;;;;;;;23.10;15.40;;;18.40;99.90;;;;;;4845414;29;20230;-77
2021/07/17 00:45:41;;;;;;;17.60;13.10;;;18.40;99.90;;;;;;4830108;29;20226;-77
2021/07/17 00:48:07;;;;;;;23.67;15.53;;;18.40;99.90;;;;;;4829088;29;20522;-77
2021/07/17 00:50:33;;;;;;;26.47;16.60;;;18.30;99.90;;;;;;4818456;29;20358;-77
2021/07/17 00:52:59;;;;;;;26.03;15.37;;;18.40;99.90;;;;;;4846432;29;20237;-77
2021/07/17 00:55:27;;;;;;;22.47;15.17;;;18.40;99.90;;;;;;4879845;29;20744;-76
2021/07/17 00:57:53;;;;;;;16.30;11.97;;;18.30;99.90;;;;;;4863471;29;20517;-76
2021/07/17 01:00:19;;;;;;;22.93;14.30;;;18.40;99.90;;;;;;4856084;29;20458;-76
2021/07/17 01:03:06;;;;;;;19.80;15.07;;;18.40;99.90;;;;;;4839564;29;20539;-76
2021/07/17 01:09:27;;;;;;;23.13;13.90;;;18.40;99.90;;;;;;4855956;29;20650;-76
2021/07/17 01:11:55;;;;;;;20.10;12.90;;;18.40;99.90;;;;;;4833880;29;20992;-76
2021/07/17 01:14:20;;;;;;;21.93;14.43;;;18.40;99.90;;;;;;4831274;29;20466;-76
2021/07/17 01:16:46;;;;;;;20.27;13.07;;;18.30;99.90;;;;;;4844402;29;20486;-76
2021/07/17 01:19:13;;;;;;;21.63;14.30;;;18.30;99.90;;;;;;4826196;29;20308;-76
2021/07/17 01:21:39;;;;;;;17.70;12.50;;;18.30;99.90;;;;;;4847263;29;20509;-76
2021/07/17 01:24:05;;;;;;;24.90;16.07;;;18.30;99.90;;;;;;4857700;29;21002;-77
2021/07/17 01:26:31;;;;;;;20.43;14.27;;;18.30;99.90;;;;;;4845208;29;20894;-77
2021/07/17 01:28:57;;;;;;;17.27;12.20;;;18.30;99.90;;;;;;4829285;29;20471;-77
2021/07/17 01:31:22;;;;;;;17.93;12.17;;;18.30;99.90;;;;;;4851575;29;20550;-76
2021/07/17 01:34:11;;;;;;;24.43;14.07;;;18.30;99.90;;;;;;4831928;29;20219;-76
2021/07/17 01:36:38;;;;;;;20.23;14.00;;;18.30;99.90;;;;;;4861238;29;20186;-76
2021/07/17 01:39:05;;;;;;;22.70;15.73;;;18.20;99.90;;;;;;4863880;29;20437;-76
2021/07/17 01:41:32;;;;;;;20.53;12.97;;;18.20;99.90;;;;;;4845596;29;20450;-76
2021/07/17 01:43:58;;;;;;;20.20;13.60;;;18.20;99.90;;;;;;4836490;29;20236;-76
2021/07/17 01:46:27;;;;;;;17.80;13.87;;;18.20;99.90;;;;;;4840998;29;20471;-77
2021/07/17 01:48:57;;;;;;;18.20;13.77;;;18.20;99.90;;;;;;4849953;29;20501;-76
2021/07/17 01:51:24;;;;;;;23.40;15.60;;;18.20;99.90;;;;;;4845024;29;20887;-76
2021/07/17 01:53:57;;;;;;;18.03;12.60;;;18.20;99.90;;;;;;4850649;29;20466;-76
2021/07/17 01:56:25;;;;;;;22.40;15.30;;;18.20;99.90;;;;;;4844951;29;20503;-76
2021/07/17 01:58:50;;;;;;;23.20;13.90;;;18.20;99.90;;;;;;4852216;29;20453;-76
2021/07/17 02:01:17;;;;;;;22.47;14.50;;;18.20;99.90;;;;;;4827390;29;20455;-76
2021/07/17 02:03:44;;;;;;;22.00;14.70;;;18.20;99.90;;;;;;4840291;29;20314;-76
2021/07/17 02:06:10;;;;;;;22.50;14.73;;;18.20;99.90;;;;;;4841645;29;20490;-76
2021/07/17 02:08:37;;;;;;;19.67;13.43;;;18.20;99.90;;;;;;4811283;29;20503;-76
2021/07/17 02:11:04;;;;;;;19.17;13.30;;;18.20;99.90;;;;;;4810795;29;20230;-76
2021/07/17 02:13:30;;;;;;;20.50;14.43;;;18.30;99.90;;;;;;4826671;29;20530;-76
2021/07/17 02:15:57;;;;;;;17.67;14.03;;;18.30;99.90;;;;;;4861250;29;20849;-77
2021/07/17 02:18:26;;;;;;;20.57;13.60;;;18.30;99.90;;;;;;4862770;29;20264;-77
2021/07/17 02:20:52;;;;;;;21.53;15.00;;;18.30;99.90;;;;;;4847156;29;20484;-76
2021/07/17 02:23:18;;;;;;;22.10;14.60;;;18.30;99.90;;;;;;4841064;29;20957;-77
2021/07/17 02:25:44;;;;;;;22.87;15.60;;;18.20;99.90;;;;;;4840802;29;20466;-76
2021/07/17 02:28:10;;;;;;;16.87;12.87;;;18.20;99.90;;;;;;4865993;29;20710;-76
2021/07/17 02:30:36;;;;;;;20.43;14.40;;;18.20;99.90;;;;;;4844516;29;20470;-76
2021/07/17 02:33:02;;;;;;;21.80;14.70;;;18.20;99.90;;;;;;4843639;29;20486;-77
2021/07/17 02:35:28;;;;;;;23.17;14.43;;;18.20;99.90;;;;;;4844183;29;20230;-77
2021/07/17 02:37:53;;;;;;;19.83;13.00;;;18.20;99.90;;;;;;4874967;29;20217;-76
2021/07/17 02:40:19;;;;;;;25.47;15.43;;;18.20;99.90;;;;;;4847417;29;20304;-76
2021/07/17 02:42:45;;;;;;;16.83;12.70;;;18.20;99.90;;;;;;4877293;29;21002;-76
2021/07/17 02:45:12;;;;;;;22.47;14.30;;;18.20;99.90;;;;;;4861329;29;20252;-76
2021/07/17 02:47:38;;;;;;;18.57;13.77;;;18.20;99.90;;;;;;4843781;29;20246;-76
2021/07/17 02:50:06;;;;;;;21.30;14.57;;;18.20;99.90;;;;;;4848945;29;20458;-76
2021/07/17 02:52:32;;;;;;;21.40;13.90;;;18.20;99.90;;;;;;4847067;29;20476;-76
2021/07/17 02:54:57;;;;;;;19.63;13.17;;;18.20;99.90;;;;;;4862133;29;20466;-76
2021/07/17 02:57:23;;;;;;;19.60;13.27;;;18.20;99.90;;;;;;4847551;29;20229;-76
2021/07/17 02:59:49;;;;;;;19.03;14.40;;;18.20;99.90;;;;;;4846240;29;20604;-76
2021/07/17 03:02:15;;;;;;;19.30;13.30;;;18.20;99.90;;;;;;4862558;29;20229;-76
2021/07/17 03:04:41;;;;;;;18.30;13.50;;;18.20;99.90;;;;;;4877897;29;20257;-76
2021/07/17 03:07:09;;;;;;;20.57;13.27;;;18.30;99.90;;;;;;4836729;29;20546;-76
2021/07/17 03:09:34;;;;;;;18.87;13.00;;;18.30;99.90;;;;;;4858740;29;20564;-76
2021/07/17 03:12:01;;;;;;;21.40;13.47;;;18.30;99.90;;;;;;4824690;29;20221;-76
2021/07/17 03:14:27;;;;;;;17.83;12.00;;;18.30;99.90;;;;;;4851850;29;20236;-76
2021/07/17 03:16:53;;;;;;;21.20;13.57;;;18.30;99.90;;;;;;4827400;29;20474;-76
2021/07/17 03:19:19;;;;;;;20.50;13.70;;;18.30;99.90;;;;;;4852499;29;20230;-76
2021/07/17 03:24:39;;;;;;;20.40;12.67;;;18.30;99.90;;;;;;4844833;29;20263;-76
2021/07/17 03:27:12;;;;;;;21.10;12.53;;;18.30;99.90;;;;;;4850534;29;20461;-76
2021/07/17 03:29:38;;;;;;;21.30;14.40;;;18.30;99.90;;;;;;4866163;29;20482;-77
2021/07/17 03:32:04;;;;;;;18.33;11.97;;;18.30;99.90;;;;;;4835150;29;20235;-76
2021/07/17 03:34:30;;;;;;;15.03;10.77;;;18.30;99.90;;;;;;4855485;29;20226;-76
2021/07/17 03:36:58;;;;;;;16.70;11.07;;;18.20;99.90;;;;;;4857572;29;21029;-76
2021/07/17 03:39:23;;;;;;;18.33;11.70;;;18.20;99.90;;;;;;4826399;29;20451;-76
2021/07/17 03:41:54;;;;;;;17.50;12.90;;;18.20;99.90;;;;;;4804695;29;20482;-76
2021/07/17 03:44:27;;;;;;;25.97;14.27;;;18.20;99.90;;;;;;4840794;29;20231;-76
2021/07/17 03:47:16;;;;;;;22.73;14.70;;;18.20;99.90;;;;;;4836142;29;20565;-76
2021/07/17 03:49:45;;;;;;;15.37;11.43;;;18.20;99.90;;;;;;4867020;29;20467;-76
2021/07/17 03:52:40;;;;;;;16.77;11.80;;;18.20;99.90;;;;;;4846693;29;20542;-76
2021/07/17 03:55:16;;;;;;;19.70;12.93;;;18.20;99.90;;;;;;4834281;29;20475;-76
2021/07/17 03:57:42;;;;;;;16.30;11.80;;;18.20;99.90;;;;;;4853510;29;20467;-76
2021/07/17 04:00:11;;;;;;;16.53;12.70;;;18.20;99.90;;;;;;4825405;29;20537;-76
2021/07/17 04:02:44;;;;;;;18.60;12.17;;;18.20;99.90;;;;;;4834114;29;20237;-76
2021/07/17 04:05:33;;;;;;;18.30;11.10;;;18.20;99.90;;;;;;4849715;29;20521;-76
2021/07/17 04:08:03;;;;;;;14.70;11.10;;;18.20;99.90;;;;;;4837706;29;20574;-76
2021/07/17 04:10:32;;;;;;;18.37;11.60;;;18.20;99.90;;;;;;4830818;29;20461;-76
2021/07/17 04:12:58;;;;;;;19.33;12.60;;;18.20;99.90;;;;;;4825844;29;20479;-76
2021/07/17 04:15:24;;;;;;;17.93;11.87;;;18.20;99.90;;;;;;4846052;29;20486;-76
2021/07/17 04:17:53;;;;;;;17.50;11.30;;;18.20;99.90;;;;;;4831872;29;20513;-76
2021/07/17 04:20:19;;;;;;;21.13;13.77;;;18.20;99.90;;;;;;4868656;29;20222;-76
2021/07/17 04:22:53;;;;;;;20.40;12.53;;;18.20;99.90;;;;;;4835503;29;20542;-76
2021/07/17 04:25:21;;;;;;;17.87;11.70;;;18.20;99.90;;;;;;4838977;29;20252;-76
2021/07/17 04:27:52;;;;;;;19.60;12.67;;;18.20;99.90;;;;;;4845138;29;20454;-76
2021/07/17 04:30:19;;;;;;;16.67;11.17;;;18.20;99.90;;;;;;4857671;29;20996;-76
2021/07/17 04:32:48;;;;;;;42.70;33.10;;;18.20;99.90;;;;;;4831898;29;20476;-76
2021/07/17 04:35:36;;;;;;;34.47;30.77;;;18.20;99.90;;;;;;4851521;29;20461;-76
2021/07/17 04:38:08;;;;;;;21.80;16.10;;;18.20;99.90;;;;;;4829730;29;20226;-76
2021/07/17 04:40:37;;;;;;;18.23;13.20;;;18.20;99.90;;;;;;4844767;29;20455;-76
2021/07/17 04:43:16;;;;;;;16.57;12.73;;;18.20;99.90;;;;;;4870824;29;20462;-76
2021/07/17 04:45:42;;;;;;;18.53;11.97;;;18.20;99.90;;;;;;4846402;29;20473;-76
2021/07/17 04:48:08;;;;;;;17.33;12.63;;;18.20;99.90;;;;;;4795764;29;20514;-76
2021/07/17 04:50:38;;;;;;;15.27;11.60;;;18.20;99.90;;;;;;4849359;29;20281;-76
2021/07/17 04:53:06;;;;;;;22.57;11.13;;;18.20;99.90;;;;;;4854258;29;20456;-76
2021/07/17 04:55:32;;;;;;;15.10;11.10;;;18.20;99.90;;;;;;4856702;29;20469;-76
2021/07/17 04:57:58;;;;;;;15.13;11.20;;;18.20;99.90;;;;;;4863006;29;20968;-76
2021/07/17 05:00:24;;;;;;;20.13;11.30;;;18.20;99.90;;;;;;4851584;29;20813;-76
2021/07/17 05:02:52;;;;;;;17.00;11.70;;;18.30;99.90;;;;;;4860778;29;20477;-76
2021/07/17 05:05:19;;;;;;;16.40;10.90;;;18.30;99.90;;;;;;4861915;29;20225;-76
2021/07/17 05:07:49;;;;;;;14.70;11.50;;;18.30;99.90;;;;;;4867524;29;20506;-76
2021/07/17 05:10:20;;;;;;;16.07;10.80;;;18.30;99.90;;;;;;4863368;29;20586;-76
2021/07/17 05:12:46;;;;;;;17.37;11.40;;;18.30;99.90;;;;;;4841319;29;20566;-76
2021/07/17 05:15:14;;;;;;;17.27;10.77;;;18.30;99.90;;;;;;4867332;29;20557;-76
2021/07/17 05:17:43;;;;;;;13.57;10.30;;;18.30;99.90;;;;;;4845522;29;20230;-77
2021/07/17 05:20:10;;;;;;;19.33;11.77;;;18.30;99.90;;;;;;4823938;29;20466;-76
2021/07/17 05:22:38;;;;;;;17.30;11.60;;;18.30;99.90;;;;;;4864075;29;20474;-76
2021/07/17 05:25:05;;;;;;;13.87;9.97;;;18.30;99.90;;;;;;4843694;29;20461;-76
2021/07/17 05:27:31;;;;;;;16.67;11.87;;;18.30;99.90;;;;;;4842776;29;20929;-78
2021/07/17 05:30:01;;;;;;;14.13;10.80;;;18.30;99.90;;;;;;4835485;29;20547;-79
2021/07/17 05:32:29;;;;;;;17.53;10.80;;;18.30;99.90;;;;;;4835892;29;20254;-79
2021/07/17 05:34:55;;;;;;;11.73;9.40;;;18.30;99.90;;;;;;4838758;29;20494;-79
2021/07/17 05:37:22;;;;;;;17.50;12.20;;;18.30;99.90;;;;;;4825073;29;20700;-79
2021/07/17 05:39:57;;;;;;;14.20;10.83;;;18.30;99.90;;;;;;4827873;29;20222;-79
2021/07/17 05:42:28;;;;;;;14.57;9.37;;;18.30;99.90;;;;;;4844636;29;20470;-79
2021/07/17 05:44:54;;;;;;;14.80;10.40;;;18.30;99.90;;;;;;4850254;29;21034;-79
2021/07/17 05:47:23;;;;;;;20.83;10.23;;;18.40;99.90;;;;;;4851732;29;20233;-79
2021/07/17 05:50:14;;;;;;;12.47;8.90;;;18.30;99.90;;;;;;4862900;29;20643;-79
2021/07/17 05:55:50;;;;;;;10.10;8.50;;;18.40;99.90;;;;;;4859800;29;20536;-79
2021/07/17 05:58:24;;;;;;;12.97;9.70;;;18.40;99.90;;;;;;4862743;29;20498;-79
2021/07/17 06:00:52;;;;;;;19.13;11.17;;;18.40;99.90;;;;;;4839766;29;20479;-79
2021/07/17 06:03:18;;;;;;;13.90;9.60;;;18.40;99.90;;;;;;4836256;29;20476;-79
2021/07/17 06:08:53;;;;;;;16.90;10.60;;;18.40;99.90;;;;;;4851425;29;21057;-79
2021/07/17 06:11:44;;;;;;;13.13;9.87;;;18.40;99.90;;;;;;4837224;29;20511;-79
2021/07/17 06:14:15;;;;;;;12.27;9.70;;;18.40;99.90;;;;;;4849496;29;20642;-79
2021/07/17 06:17:04;;;;;;;11.37;8.97;;;18.40;99.90;;;;;;4844225;29;20847;-79
2021/07/17 06:19:51;;;;;;;17.50;9.00;;;18.40;99.90;;;;;;4823933;29;20469;-79
2021/07/17 06:22:26;;;;;;;18.67;9.53;;;18.40;99.90;;;;;;4838027;29;20464;-77
2021/07/17 06:24:52;;;;;;;13.97;9.27;;;18.40;99.90;;;;;;4860376;29;20467;-77
2021/07/17 06:27:20;;;;;;;13.73;9.47;;;18.40;99.90;;;;;;4853144;29;20564;-77
2021/07/17 06:30:01;;;;;;;10.90;9.10;;;18.40;99.90;;;;;;4857184;29;20477;-77
2021/07/17 06:32:37;;;;;;;14.63;10.03;;;18.40;99.90;;;;;;4835838;29;20474;-77
2021/07/17 06:35:53;;;;;;;13.00;9.90;;;18.40;99.90;;;;;;4830192;29;20532;-77
2021/07/17 06:38:30;;;;;;;21.90;9.47;;;18.40;99.90;;;;;;4826419;29;20698;-77
2021/07/17 06:44:11;;;;;;;12.40;8.73;;;18.40;99.90;;;;;;4860887;29;20446;-77
2021/07/17 06:47:15;;;;;;;12.50;9.30;;;18.50;99.90;;;;;;4829654;29;20538;-77
2021/07/17 06:49:44;;;;;;;10.47;8.20;;;18.50;99.90;;;;;;4804067;29;20477;-77
2021/07/17 06:52:10;;;;;;;11.17;8.30;;;18.50;99.90;;;;;;4824015;29;20850;-77
2021/07/17 06:54:46;;;;;;;12.33;8.60;;;18.50;99.90;;;;;;4830630;29;20230;-77
2021/07/17 06:57:41;;;;;;;11.37;8.20;;;18.60;99.90;;;;;;4834880;29;20494;-77
2021/07/17 07:00:41;;;;;;;13.47;8.77;;;18.60;99.90;;;;;;4833075;29;20499;-77
2021/07/17 07:03:07;;;;;;;12.17;9.37;;;18.60;99.90;;;;;;4833478;29;20569;-77
2021/07/17 07:05:43;;;;;;;18.47;9.17;;;18.60;99.90;;;;;;4838882;29;20622;-77
2021/07/17 07:08:09;;;;;;;9.27;7.80;;;18.60;99.90;;;;;;4846910;29;20230;-77
2021/07/17 07:10:38;;;;;;;12.57;7.20;;;18.60;99.90;;;;;;4851783;29;20537;-77
2021/07/17 07:13:15;;;;;;;12.03;7.83;;;18.60;99.90;;;;;;4844635;29;20237;-77
2021/07/17 07:19:46;;;;;;;11.37;8.20;;;18.70;99.90;;;;;;4803520;29;20561;-77
2021/07/17 07:22:15;;;;;;;8.97;6.87;;;18.70;99.90;;;;;;4808524;29;20466;-77
2021/07/17 07:24:44;;;;;;;9.43;7.03;;;18.70;99.90;;;;;;4848591;29;20552;-79
2021/07/17 07:27:09;;;;;;;12.67;8.30;;;18.70;99.90;;;;;;4845979;29;20483;-79
2021/07/17 07:29:36;;;;;;;12.70;7.67;;;18.80;99.90;;;;;;4846380;29;20475;-80
2021/07/17 07:32:01;;;;;;;10.97;8.20;;;18.80;99.90;;;;;;4846988;29;20481;-80
2021/07/17 07:34:27;;;;;;;10.37;7.47;;;18.80;99.90;;;;;;4820479;29;20222;-78
2021/07/17 07:36:53;;;;;;;8.97;7.00;;;18.80;99.90;;;;;;4843808;29;20286;-80
2021/07/17 07:39:19;;;;;;;11.20;8.57;;;18.80;99.90;;;;;;4839379;29;20246;-80
2021/07/17 07:41:45;;;;;;;12.50;7.97;;;18.80;99.90;;;;;;4842283;29;20700;-80
2021/07/17 07:44:11;;;;;;;10.87;8.00;;;18.80;99.90;;;;;;4846511;29;20222;-80
2021/07/17 07:46:37;;;;;;;8.73;6.87;;;18.80;99.90;;;;;;4825158;29;20479;-80
2021/07/17 07:49:04;;;;;;;9.20;7.33;;;18.80;99.90;;;;;;4849881;29;20464;-80
2021/07/17 07:51:36;;;;;;;8.60;6.23;;;18.90;99.90;;;;;;4827085;29;20468;-80
2021/07/17 07:54:03;;;;;;;11.73;7.80;;;18.90;99.90;;;;;;4816324;29;22275;-79
2021/07/17 07:56:31;;;;;;;9.70;6.87;;;18.90;99.90;;;;;;4829404;29;20553;-79
2021/07/17 08:00:08;;;;;;;;;;;;;;;;;;;;;
2021/07/17 08:03:02;;;;;;;11.60;6.87;;;19.00;99.90;;;;;;4766911;29;20473;-78
2021/07/17 08:09:15;;;;;;;10.97;7.30;;;19.10;99.90;;;;;;4782564;29;20501;-78
2021/07/17 08:14:44;;;;;;;8.50;6.70;;;19.20;99.90;;;;;;4843637;29;20479;-78
2021/07/17 08:18:12;;;;;;;;;;;;;;;;;;;;;
2021/07/17 08:21:19;;;;;;;8.60;6.60;;;19.30;99.90;;;;;;4845952;29;21025;-78
2021/07/17 08:27:37;;;;;;;11.80;8.23;;;19.40;99.90;;;;;;4817149;29;20511;-77
2021/07/17 08:30:52;;;;;;;9.07;5.90;;;19.50;99.90;;;;;;4832620;29;20547;-78
2021/07/17 08:33:28;;;;;;;7.87;6.87;;;19.50;99.90;;;;;;4840274;29;20452;-77
2021/07/17 08:36:46;;;;;;;11.40;8.20;;;19.60;99.90;;;;;;4827172;29;20504;-77
2021/07/17 08:44:06;;;;;;;9.70;7.07;;;19.70;99.90;;;;;;4762425;30;20513;-78
2021/07/17 08:50:55;;;;;;;11.63;8.40;;;19.70;99.90;;;;;;4816026;29;20476;-77
2021/07/17 09:00:44;;;;;;;15.03;10.37;;;19.80;99.90;;;;;;4770218;30;20444;-79
2021/07/17 09:03:22;;;;;;;15.73;10.87;;;19.90;99.90;;;;;;4775485;29;20781;-80
2021/07/17 09:05:53;;;;;;;19.17;10.40;;;19.90;99.90;;;;;;4851299;29;20430;-80
2021/07/17 09:08:23;;;;;;;13.30;8.20;;;20.00;99.90;;;;;;4851904;29;20435;-80
2021/07/17 09:11:52;;;;;;;;;;;;;;;;;;;;;
2021/07/17 09:14:45;;;;;;;19.20;11.33;;;20.00;99.90;;;;;;4884121;29;20462;-80
2021/07/17 09:17:49;;;;;;;16.13;10.37;;;20.10;99.90;;;;;;4837646;29;20430;-80
2021/07/17 09:25:08;;;;;;;15.53;10.53;;;20.10;99.90;;;;;;4883506;29;20394;-80
2021/07/17 09:31:44;;;;;;;16.20;11.20;;;20.30;99.90;;;;;;4883903;29;20446;-80
2021/07/17 09:49:33;;;;;;;19.07;11.97;;;20.80;99.90;;;;;;4820374;29;20471;-79
2021/07/17 09:56:13;;;;;;;12.03;10.53;;;21.10;99.90;;;;;;4786412;29;20493;-80
2021/07/17 10:07:10;;;;;;;12.37;10.17;;;21.20;99.90;;;;;;4738429;30;20425;-80
2021/07/17 10:13:27;;;;;;;15.10;11.00;;;21.50;99.90;;;;;;5229759;23;20562;-78
2021/07/17 10:20:14;;;;;;;17.73;12.00;;;21.60;99.90;;;;;;4779425;30;21090;-78
2021/07/17 10:26:34;;;;;;;13.63;10.70;;;21.70;99.90;;;;;;4849004;29;20426;-78
2021/07/17 10:37:41;;;;;;;24.00;16.17;;;21.70;99.90;;;;;;4793780;29;20446;-80
2021/07/17 10:44:10;;;;;;;18.23;10.33;;;21.90;99.90;;;;;;4846938;29;20454;-80
2021/07/17 10:55:27;;;;;;;13.90;10.67;;;22.30;99.90;;;;;;4758064;30;20563;-80
2021/07/17 11:27:44;;;;;;;15.90;12.77;;;23.00;99.90;;;;;;4890777;29;20424;-81
2021/07/17 11:31:01;;;;;;;20.53;12.17;;;23.00;99.90;;;;;;4864628;29;20947;-80
2021/07/17 11:45:01;;;;;;;10.23;9.10;;;23.40;99.90;;;;;;5239154;23;20537;-78
2021/07/17 11:51:21;;;;;;;16.00;10.97;;;23.60;99.90;;;;;;4814459;29;20444;-78
2021/07/17 12:13:10;;;;;;;12.90;10.50;;;24.20;99.90;;;;;;5342839;23;20474;-79
2021/07/17 12:16:26;;;;;;;13.03;10.27;;;24.20;99.90;;;;;;4815860;29;20857;-79
2021/07/17 12:19:24;;;;;;;9.70;8.67;;;24.30;99.90;;;;;;4770579;29;20466;-79
2021/07/17 12:22:24;;;;;;;11.93;9.10;;;24.40;99.90;;;;;;4790896;29;20450;-79
2021/07/17 12:25:09;;;;;;;11.20;9.57;;;24.40;99.90;;;;;;4802311;29;20442;-79
2021/07/17 12:39:30;;;;;;;18.27;12.13;;;24.60;99.90;;;;;;4789097;29;20573;-79
2021/07/17 12:42:52;;;;;;;11.67;9.43;;;24.60;99.90;;;;;;4807707;29;20462;-79
2021/07/17 12:45:40;;;;;;;13.13;10.73;;;24.80;99.90;;;;;;4808331;29;20477;-79
2021/07/17 12:48:20;;;;;;;14.40;10.90;;;25.00;99.90;;;;;;4750761;29;20558;-79
2021/07/17 12:51:18;;;;;;;16.60;11.40;;;25.10;99.90;;;;;;4777134;29;20514;-79
2021/07/17 12:57:47;;;;;;;18.53;12.17;;;25.20;99.90;;;;;;4748211;29;20483;-79
2021/07/17 13:00:46;;;;;;;15.97;10.50;;;25.30;99.90;;;;;;4828885;29;20470;-79
2021/07/17 13:03:14;;;;;;;11.30;9.70;;;25.30;99.90;;;;;;4793507;29;20541;-79
2021/07/17 13:06:47;;;;;;;13.63;12.20;;;25.10;99.90;;;;;;4792859;29;20478;-79
2021/07/17 13:09:51;;;;;;;;;;;;;;;;;;;;;
2021/07/17 13:13:09;;;;;;;15.40;11.97;;;25.20;99.90;;;;;;4825893;29;20466;-79
2021/07/17 13:19:25;;;;;;;13.40;11.10;;;25.20;99.90;;;;;;4843333;29;20542;-80
2021/07/17 13:26:25;;;;;;;14.40;10.70;;;25.20;99.90;;;;;;4841401;29;20447;-79
2021/07/17 13:29:51;;;;;;;;;;;;;;;;;;;;;
2021/07/17 13:32:47;;;;;;;13.00;10.17;;;25.30;99.90;;;;;;4796789;29;20460;-78
2021/07/17 13:39:16;;;;;;;11.00;9.80;;;25.30;99.90;;;;;;4830881;29;21022;-79
2021/07/17 13:42:47;;;;;;;15.10;11.93;;;25.20;99.90;;;;;;4787778;29;20497;-80
2021/07/17 13:45:15;;;;;;;15.00;11.70;;;25.40;99.90;;;;;;4798736;29;20464;-80
2021/07/17 13:55:45;;;;;;;15.10;11.97;;;25.50;99.90;;;;;;4841386;29;20463;-79
2021/07/17 14:02:14;;;;;;;18.60;12.40;;;25.30;99.90;;;;;;4779044;29;20466;-79
2021/07/17 14:09:05;;;;;;;15.97;12.00;;;25.30;99.90;;;;;;4678020;30;20549;-79
2021/07/17 14:12:11;;;;;;;15.83;10.97;;;25.30;99.90;;;;;;4747953;30;20473;-79
2021/07/17 14:15:03;;;;;;;19.00;13.10;;;25.20;99.90;;;;;;4802690;29;21179;-78
2021/07/17 14:18:50;;;;;;;16.87;13.53;;;25.20;99.90;;;;;;4800503;29;20475;-79
2021/07/17 14:21:25;;;;;;;17.07;13.90;;;25.20;99.90;;;;;;4779310;29;20498;-79
2021/07/17 14:27:19;;;;;;;15.77;13.73;;;25.50;99.90;;;;;;4805318;29;20479;-79
2021/07/17 14:30:50;;;;;;;16.37;13.30;;;25.30;99.90;;;;;;4801454;29;20490;-79
2021/07/17 14:33:25;;;;;;;17.77;11.20;;;25.20;99.90;;;;;;4723919;30;20479;-79
2021/07/17 14:36:46;;;;;;;14.30;12.30;;;25.30;99.90;;;;;;4811439;29;20472;-78
2021/07/17 14:39:16;;;;;;;18.97;14.90;;;25.10;99.90;;;;;;4811997;29;20471;-79
2021/07/17 14:42:15;;;;;;;;;;;;;;;;;;;;;
2021/07/17 14:45:00;;;;;;;19.17;15.00;;;25.00;99.90;;;;;;4838378;29;20455;-79
2021/07/17 14:48:29;;;;;;;;;;;;;;;;;;;;;
2021/07/17 14:54:48;;;;;;;18.87;13.90;;;25.00;99.90;;;;;;4829571;29;20474;-79
2021/07/17 15:01:27;;;;;;;20.33;14.60;;;25.20;99.90;;;;;;4702658;30;20473;-79
2021/07/17 15:04:07;;;;;;;20.03;15.13;;;25.10;99.90;;;;;;4754480;29;20536;-79
2021/07/17 15:06:50;;;;;;;17.30;15.40;;;25.10;99.90;;;;;;4764757;30;20523;-79
2021/07/17 15:09:16;;;;;;;17.40;12.87;;;25.20;99.90;;;;;;4759671;30;20495;-79
2021/07/17 15:12:19;;;;;;;19.97;14.50;;;25.30;99.90;;;;;;4748366;30;20519;-79
2021/07/17 15:15:12;;;;;;;21.13;13.30;;;25.40;99.90;;;;;;4795011;29;20225;-79
2021/07/17 15:18:48;;;;;;;18.17;12.60;;;25.50;99.90;;;;;;4820366;29;21100;-79
2021/07/17 15:21:15;;;;;;;17.17;12.07;;;25.40;99.90;;;;;;4813147;29;20467;-79
2021/07/17 15:24:50;;;;;;;21.13;14.30;;;25.30;99.90;;;;;;4805396;29;20479;-79
2021/07/17 15:27:18;;;;;;;12.87;9.67;;;25.30;99.90;;;;;;4767767;29;20944;-79
2021/07/17 15:33:15;;;;;;;16.80;14.10;;;25.30;99.90;;;;;;4813062;29;20532;-79
2021/07/17 15:36:31;;;;;;;;;;;;;;;;;;;;;
2021/07/17 15:39:17;;;;;;;21.07;14.60;;;25.30;99.90;;;;;;4823455;29;20463;-79
2021/07/17 15:41:50;;;;;;;18.43;15.00;;;25.30;99.90;;;;;;4805105;29;20464;-79
2021/07/17 15:44:16;;;;;;;17.80;14.07;;;25.50;99.90;;;;;;4820328;29;20562;-79
2021/07/17 15:46:43;;;;;;;15.23;11.70;;;25.60;99.90;;;;;;4821737;29;20547;-79
2021/07/17 15:49:12;;;;;;;18.97;14.60;;;25.70;99.90;;;;;;4800921;29;20483;-81
2021/07/17 15:52:38;;;;;;;;;;;;;;;;;;;;;
2021/07/17 15:55:30;;;;;;;15.30;13.13;;;25.60;99.90;;;;;;4777334;29;20489;-81
2021/07/17 16:01:58;;;;;;;15.90;13.07;;;25.50;99.90;;;;;;4825770;29;20432;-81
2021/07/17 16:08:06;;;;;;;19.20;13.63;;;25.50;99.90;;;;;;4812403;29;20628;-81
2021/07/17 16:11:23;;;;;;;;;;;;;;;;;;;;;
2021/07/17 16:14:18;;;;;;;14.80;10.70;;;25.60;99.90;;;;;;4809487;29;20507;-81
2021/07/17 16:17:23;;;;;;;;;;;;;;;;;;;;;
2021/07/17 16:20:18;;;;;;;15.03;12.67;;;25.70;99.90;;;;;;4836746;29;20463;-81
2021/07/17 16:23:35;;;;;;;16.23;12.17;;;25.70;99.90;;;;;;4810318;29;20480;-81
2021/07/17 16:26:17;;;;;;;16.43;12.93;;;25.60;99.90;;;;;;4797243;29;20472;-81
2021/07/17 16:32:47;;;;;;;15.20;12.00;;;25.50;99.90;;;;;;4815447;29;20474;-81
2021/07/17 16:36:16;;;;;;;;;;;;;;;;;;;;;
2021/07/17 16:38:55;;;;;;;15.27;12.00;;;25.50;99.90;;;;;;4804699;29;20502;-79
2021/07/17 16:41:54;;;;;;;;;;;;;;;;;;;;;
2021/07/17 16:44:58;;;;;;;14.67;10.77;;;25.50;99.90;;;;;;4816635;29;20532;-79
2021/07/17 16:48:06;;;;;;;;;;;;;;;;;;;;;
2021/07/17 16:50:43;;;;;;;12.47;10.67;;;25.40;99.90;;;;;;4798048;29;20529;-79
2021/07/17 16:53:14;;;;;;;14.93;13.00;;;25.50;99.90;;;;;;4808544;29;20484;-78
2021/07/17 16:55:40;;;;;;;13.73;11.00;;;25.50;99.90;;;;;;4822599;29;20315;-79
2021/07/17 16:59:12;;;;;;;;;;;;;;;;;;;;;
2021/07/17 17:02:13;;;;;;;11.93;10.63;;;25.40;99.90;;;;;;4809098;29;20554;-79
2021/07/17 17:08:57;;;;;;;12.20;10.27;;;25.30;99.90;;;;;;4797701;29;20577;-79
2021/07/17 17:15:24;;;;;;;13.63;10.23;;;25.30;99.90;;;;;;4841415;29;20458;-79
2021/07/17 17:18:44;;;;;;;15.20;10.40;;;25.20;99.90;;;;;;4810557;29;20496;-79
2021/07/17 17:21:18;;;;;;;12.70;11.37;;;25.20;99.90;;;;;;4747248;29;20495;-79
2021/07/17 17:27:19;;;;;;;12.37;9.33;;;25.20;99.90;;;;;;4813679;29;20456;-79
2021/07/17 17:37:22;;;;;;;36.70;33.23;;;25.20;99.90;;;;;;4790798;29;20489;-78
2021/07/17 17:40:00;;;;;;;12.67;8.90;;;25.20;99.90;;;;;;4796298;29;21015;-79
2021/07/17 17:42:29;;;;;;;13.00;10.60;;;25.10;99.90;;;;;;4799408;29;20507;-79
2021/07/17 17:44:59;;;;;;;11.00;9.90;;;25.10;99.90;;;;;;4807276;29;20467;-79
2021/07/17 17:47:27;;;;;;;11.30;9.70;;;25.00;99.90;;;;;;4772023;29;20487;-78
2021/07/17 17:49:54;;;;;;;9.83;8.87;;;25.00;99.90;;;;;;4804461;29;20490;-78
2021/07/17 17:52:20;;;;;;;12.13;10.90;;;25.00;99.90;;;;;;4811351;29;20830;-79
2021/07/17 17:54:46;;;;;;;11.73;10.47;;;25.00;99.90;;;;;;4784988;29;20243;-79
2021/07/17 17:57:12;;;;;;;10.23;9.23;;;25.00;99.90;;;;;;4810885;29;20230;-78
2021/07/17 17:59:43;;;;;;;12.07;10.83;;;25.00;99.90;;;;;;4816088;29;20715;-79
2021/07/17 18:02:09;;;;;;;13.30;10.30;;;25.00;99.90;;;;;;4803911;29;20231;-79
2021/07/17 18:05:15;;;;;;;10.43;9.40;;;25.00;99.90;;;;;;4804356;29;20818;-78
2021/07/17 18:08:21;;;;;;;12.67;9.90;;;24.90;99.90;;;;;;4807117;29;20520;-79
2021/07/17 18:11:46;;;;;;;13.17;10.47;;;25.00;99.90;;;;;;4833251;29;20470;-78